createdAt,value
2023-03-26T00:01:13.449Z,99880.66
2023-03-26T00:03:40.442Z,99889.72
2023-03-26T00:06:10.455Z,99893.44
2023-03-26T00:08:38.942Z,99895.88
2023-03-26T00:11:07.733Z,99895.16
2023-03-26T00:13:34.664Z,99889.16
2023-03-26T00:16:01.799Z,99897.41
2023-03-26T00:18:28.292Z,99898.13
2023-03-26T00:20:54.768Z,99895.00
2023-03-26T00:23:21.255Z,99901.53
2023-03-26T00:25:49.456Z,99898.00
2023-03-26T00:28:16.358Z,99892.72
2023-03-26T00:30:43.298Z,99905.81
2023-03-26T00:33:09.816Z,99909.50
2023-03-26T00:35:37.075Z,99909.19
2023-03-26T00:38:03.468Z,99905.94
2023-03-26T00:40:29.848Z,99908.91
2023-03-26T00:42:56.310Z,99901.22
2023-03-26T00:45:22.771Z,99896.25
2023-03-26T00:47:49.259Z,99896.09
2023-03-26T00:50:15.805Z,99894.66
2023-03-26T00:52:43.984Z,99897.78
2023-03-26T00:55:10.639Z,99898.72
2023-03-26T00:57:37.161Z,99896.72
2023-03-26T01:00:13.441Z,99900.50
2023-03-26T01:02:40.024Z,99906.16
2023-03-26T01:05:34.336Z,99898.84
2023-03-26T01:08:26.711Z,99908.34
2023-03-26T01:10:55.587Z,99909.25
2023-03-26T01:13:24.190Z,99892.59
2023-03-26T01:15:51.521Z,99906.63
2023-03-26T01:18:22.493Z,99912.91
2023-03-26T01:20:50.841Z,99914.72
2023-03-26T01:23:24.644Z,99910.56
2023-03-26T01:26:04.172Z,99918.66
2023-03-26T01:28:33.996Z,99915.97
2023-03-26T01:31:21.306Z,99909.28
2023-03-26T01:34:02.057Z,99911.38
2023-03-26T01:36:39.663Z,99908.81
2023-03-26T01:39:29.103Z,99916.31
2023-03-26T01:42:02.652Z,99926.50
2023-03-26T01:44:50.396Z,99919.78
2023-03-26T01:47:18.380Z,99915.66
2023-03-26T01:49:44.866Z,99927.56
2023-03-26T01:52:21.592Z,99927.69
2023-03-26T01:54:48.668Z,99935.19
2023-03-26T01:57:23.919Z,99937.44
2023-03-26T02:00:17.676Z,99935.09
2023-03-26T02:02:56.197Z,99944.31
2023-03-26T02:05:29.050Z,99946.69
2023-03-26T02:08:19.832Z,99942.66
2023-03-26T02:10:51.136Z,99934.59
2023-03-26T02:13:17.756Z,99941.22
2023-03-26T02:16:17.174Z,99953.25
2023-03-26T02:18:45.236Z,99974.22
2023-03-26T02:21:15.821Z,99962.09
2023-03-26T02:23:44.378Z,99954.00
2023-03-26T02:26:11.385Z,99963.25
2023-03-26T02:28:38.283Z,99971.09
2023-03-26T02:31:05.325Z,99983.47
2023-03-26T02:33:32.714Z,99975.78
2023-03-26T02:35:59.650Z,99971.22
2023-03-26T02:38:26.517Z,99972.06
2023-03-26T02:40:54.115Z,99976.72
2023-03-26T02:43:20.572Z,99978.00
2023-03-26T02:45:47.131Z,99977.50
2023-03-26T02:48:13.971Z,99961.00
2023-03-26T02:50:41.071Z,99969.34
2023-03-26T02:53:07.832Z,99968.13
2023-03-26T02:55:34.321Z,99976.59
2023-03-26T02:58:00.781Z,99964.06
2023-03-26T03:00:27.287Z,99956.84
2023-03-26T03:02:53.791Z,99959.66
2023-03-26T03:05:20.340Z,99962.91
2023-03-26T03:07:46.859Z,99978.34
2023-03-26T03:10:14.309Z,99976.03
2023-03-26T03:12:41.985Z,99977.63
2023-03-26T03:15:09.292Z,99987.22
2023-03-26T03:17:35.682Z,99987.34
2023-03-26T03:20:02.120Z,99992.59
2023-03-26T03:22:28.893Z,99984.16
2023-03-26T03:24:55.356Z,100002.78
2023-03-26T03:27:21.802Z,99994.34
2023-03-26T03:29:48.276Z,99996.53
2023-03-26T03:32:14.748Z,100001.44
2023-03-26T03:34:41.195Z,100013.56
2023-03-26T03:37:07.682Z,100008.50
2023-03-26T03:39:34.164Z,100017.44
2023-03-26T03:42:00.675Z,100022.66
2023-03-26T03:44:27.141Z,100024.00
2023-03-26T03:46:53.648Z,100023.25
2023-03-26T03:49:20.149Z,100030.31
2023-03-26T03:51:46.646Z,100025.28
2023-03-26T03:54:13.188Z,100028.22
2023-03-26T03:56:39.772Z,100026.00
2023-03-26T03:59:06.327Z,100026.13
2023-03-26T04:01:32.790Z,100019.13
2023-03-26T04:03:59.396Z,100020.13
2023-03-26T04:06:26.091Z,100017.16
2023-03-26T04:08:52.607Z,100020.94
2023-03-26T04:11:19.122Z,100020.81
2023-03-26T04:13:45.627Z,100024.00
2023-03-26T04:16:12.145Z,100011.56
2023-03-26T04:18:38.602Z,100013.38
2023-03-26T04:21:05.838Z,100014.47
2023-03-26T04:23:32.328Z,100026.69
2023-03-26T04:26:02.510Z,100033.69
2023-03-26T04:28:32.513Z,100027.56
2023-03-26T04:31:01.142Z,100031.22
2023-03-26T04:33:30.146Z,100042.94
2023-03-26T04:35:57.324Z,100045.53
2023-03-26T04:38:23.956Z,100055.88
2023-03-26T04:40:50.416Z,100060.00
2023-03-26T04:43:17.194Z,100050.59
2023-03-26T04:45:44.444Z,100061.47
2023-03-26T04:48:11.120Z,100059.09
2023-03-26T04:50:37.619Z,100061.69
2023-03-26T04:53:04.069Z,100052.63
2023-03-26T04:55:41.690Z,100044.47
2023-03-26T04:58:08.185Z,100047.91
2023-03-26T05:00:34.874Z,100044.22
2023-03-26T05:03:01.381Z,100037.53
2023-03-26T05:05:29.053Z,100034.13
2023-03-26T05:07:55.507Z,100030.38
2023-03-26T05:10:22.172Z,100034.28
2023-03-26T05:12:48.871Z,100038.22
2023-03-26T05:15:15.967Z,100042.66
2023-03-26T05:17:42.888Z,100038.00
2023-03-26T05:20:19.415Z,100038.16
2023-03-26T05:22:46.170Z,100038.69
2023-03-26T05:25:13.663Z,100031.19
2023-03-26T05:27:40.369Z,100040.50
2023-03-26T05:30:08.142Z,100044.53
2023-03-26T05:32:34.697Z,100029.00
2023-03-26T05:35:02.066Z,100027.00
2023-03-26T05:37:29.372Z,100029.78
2023-03-26T05:39:55.701Z,100027.44
2023-03-26T05:42:22.193Z,100020.34
2023-03-26T05:44:49.053Z,100009.47
2023-03-26T05:47:15.582Z,100017.59
2023-03-26T05:49:42.115Z,100010.47
2023-03-26T05:52:08.607Z,100012.97
2023-03-26T05:54:35.120Z,100022.13
2023-03-26T05:57:01.677Z,100016.28
2023-03-26T05:59:28.469Z,100026.19
2023-03-26T06:01:54.964Z,100027.78
2023-03-26T06:04:21.564Z,100030.38
2023-03-26T06:06:48.213Z,100029.94
2023-03-26T06:09:14.692Z,100042.09
2023-03-26T06:11:41.229Z,100048.63
2023-03-26T06:14:07.739Z,100030.81
2023-03-26T06:16:34.365Z,100033.25
2023-03-26T06:19:00.880Z,100023.53
2023-03-26T06:21:28.230Z,100024.38
2023-03-26T06:23:55.460Z,100027.44
2023-03-26T06:26:21.970Z,100029.59
2023-03-26T06:28:48.772Z,100040.66
2023-03-26T06:31:15.150Z,100052.19
2023-03-26T06:33:41.607Z,100045.81
2023-03-26T06:36:08.545Z,100041.31
2023-03-26T06:38:35.164Z,100051.41
2023-03-26T06:41:03.531Z,100064.47
2023-03-26T06:43:30.062Z,100061.94
2023-03-26T06:45:56.534Z,100051.88
2023-03-26T06:48:22.989Z,100049.09
2023-03-26T06:50:49.476Z,100054.25
2023-03-26T06:53:15.962Z,100054.50
2023-03-26T06:55:42.428Z,100051.72
2023-03-26T06:58:11.859Z,100056.16
2023-03-26T07:00:38.806Z,100055.41
2023-03-26T07:03:06.228Z,100056.22
2023-03-26T07:05:32.791Z,100068.53
2023-03-26T07:07:59.265Z,100070.09
2023-03-26T07:10:25.789Z,100058.94
2023-03-26T07:12:53.152Z,100054.38
2023-03-26T07:15:19.595Z,100071.81
2023-03-26T07:17:46.116Z,100066.97
2023-03-26T07:20:12.876Z,100066.19
2023-03-26T07:22:39.677Z,100065.22
2023-03-26T07:25:06.530Z,100065.63
2023-03-26T07:27:51.141Z,100064.03
2023-03-26T07:30:31.515Z,100067.22
2023-03-26T07:33:00.835Z,100064.78
2023-03-26T07:35:46.657Z,100065.38
2023-03-26T07:38:28.377Z,100062.81
2023-03-26T07:41:32.702Z,100053.34
2023-03-26T07:44:01.929Z,100064.41
2023-03-26T07:46:33.123Z,100056.25
2023-03-26T07:49:00.217Z,100045.50
2023-03-26T07:51:27.337Z,100062.03
2023-03-26T07:53:54.105Z,100061.75
2023-03-26T07:56:26.232Z,100059.31
2023-03-26T07:59:23.193Z,100068.81
2023-03-26T08:02:16.589Z,100070.38
2023-03-26T08:04:54.382Z,100065.03
2023-03-26T08:07:49.832Z,100062.56
2023-03-26T08:10:23.531Z,100061.84
2023-03-26T08:12:52.837Z,100056.59
2023-03-26T08:15:28.387Z,100052.81
2023-03-26T08:18:13.596Z,100057.69
2023-03-26T08:20:48.916Z,100052.78
2023-03-26T08:23:21.308Z,100051.00
2023-03-26T08:25:57.340Z,100042.94
2023-03-26T08:28:34.929Z,100036.75
2023-03-26T08:31:01.693Z,100032.16
2023-03-26T08:33:28.747Z,100031.66
2023-03-26T08:35:55.301Z,100024.28
2023-03-26T08:38:22.762Z,100035.50
2023-03-26T08:41:10.939Z,100025.25
2023-03-26T08:44:04.113Z,100022.41
2023-03-26T08:47:09.937Z,100022.03
2023-03-26T08:50:00.941Z,100017.78
2023-03-26T08:52:45.790Z,100015.22
2023-03-26T08:55:12.226Z,100017.53
2023-03-26T08:57:59.998Z,100012.88
2023-03-26T09:00:56.418Z,100006.16
2023-03-26T09:03:50.770Z,99999.34
2023-03-26T09:06:38.685Z,99983.75
2023-03-26T09:09:22.133Z,99981.56
2023-03-26T09:12:09.931Z,99983.81
2023-03-26T09:14:57.784Z,99975.50
2023-03-26T09:17:43.240Z,99977.75
2023-03-26T09:20:30.624Z,99961.69
2023-03-26T09:23:18.358Z,99962.97
2023-03-26T09:25:44.776Z,99963.59
2023-03-26T09:28:50.182Z,99959.50
2023-03-26T09:31:52.468Z,99962.94
2023-03-26T09:34:29.173Z,99960.63
2023-03-26T09:37:25.622Z,99944.91
2023-03-26T09:40:15.484Z,99951.09
2023-03-26T09:43:00.119Z,99946.34
2023-03-26T09:45:50.778Z,99944.88
2023-03-26T09:48:43.393Z,99936.72
2023-03-26T09:51:32.809Z,99934.66
2023-03-26T09:54:25.013Z,99927.66
2023-03-26T09:56:57.754Z,99934.47
2023-03-26T10:00:01.524Z,99925.91
2023-03-26T10:02:51.573Z,99911.06
2023-03-26T10:05:18.019Z,99916.44
2023-03-26T10:08:01.176Z,99914.75
2023-03-26T10:10:55.675Z,99912.94
2023-03-26T10:13:41.090Z,99906.25
2023-03-26T10:16:19.518Z,99903.38
2023-03-26T10:19:19.560Z,99896.03
2023-03-26T10:21:59.607Z,99896.53
2023-03-26T10:24:57.246Z,99883.97
2023-03-26T10:27:32.573Z,99880.22
2023-03-26T10:30:17.492Z,99883.53
2023-03-26T10:32:51.183Z,99867.06
2023-03-26T10:35:42.037Z,99862.50
2023-03-26T10:38:35.562Z,99860.31
2023-03-26T10:41:20.816Z,99850.41
2023-03-26T10:44:07.348Z,99855.63
2023-03-26T10:46:41.589Z,99845.47
2023-03-26T10:49:37.117Z,99844.44
2023-03-26T10:52:06.595Z,99849.13
2023-03-26T10:54:53.355Z,99845.53
2023-03-26T10:57:41.373Z,99829.56
2023-03-26T11:00:18.071Z,99821.56
2023-03-26T11:03:03.374Z,99825.44
2023-03-26T11:05:51.464Z,99819.59
2023-03-26T11:08:31.976Z,99813.91
2023-03-26T11:11:19.393Z,99805.47
2023-03-26T11:13:45.862Z,99809.84
2023-03-26T11:16:34.038Z,99802.72
2023-03-26T11:19:22.002Z,99788.09
2023-03-26T11:22:20.472Z,99792.78
2023-03-26T11:25:00.875Z,99802.06
2023-03-26T11:27:52.766Z,99779.19
2023-03-26T11:30:28.360Z,99770.75
2023-03-26T11:33:00.212Z,99774.66
2023-03-26T11:35:39.591Z,99769.78
2023-03-26T11:38:17.167Z,99767.97
2023-03-26T11:40:46.025Z,99774.97
2023-03-26T11:43:14.737Z,99772.41
2023-03-26T11:45:46.449Z,99761.41
2023-03-26T11:48:24.721Z,99768.81
2023-03-26T11:50:58.359Z,99763.13
2023-03-26T11:53:29.442Z,99756.59
2023-03-26T11:56:04.207Z,99739.69
2023-03-26T11:58:54.501Z,99735.41
2023-03-26T12:01:49.170Z,99726.34
2023-03-26T12:04:18.334Z,99733.09
2023-03-26T12:07:06.662Z,99727.78
2023-03-26T12:09:33.166Z,99735.63
2023-03-26T12:12:00.604Z,99725.00
2023-03-26T12:14:29.957Z,99708.97
2023-03-26T12:17:07.004Z,99712.53
2023-03-26T12:19:42.487Z,99708.63
2023-03-26T12:22:37.502Z,99703.69
2023-03-26T12:25:25.327Z,99703.44
2023-03-26T12:27:57.491Z,99699.03
2023-03-26T12:30:26.877Z,99694.38
2023-03-26T12:32:58.957Z,99694.91
2023-03-26T12:35:27.946Z,99686.97
2023-03-26T12:37:56.709Z,99679.53
2023-03-26T12:40:29.372Z,99674.31
2023-03-26T12:44:49.470Z,99667.09
2023-03-26T12:46:03.728Z,99665.09
2023-03-26T12:48:41.640Z,99660.59
2023-03-26T12:51:19.354Z,99658.34
2023-03-26T12:54:06.512Z,99648.72
2023-03-26T12:56:42.761Z,99645.13
2023-03-26T12:59:21.125Z,99654.84
2023-03-26T13:01:52.722Z,99651.41
2023-03-26T13:04:36.330Z,99638.69
2023-03-26T13:07:21.660Z,99628.59
2023-03-26T13:09:52.834Z,99621.06
2023-03-26T13:13:04.982Z,99622.69
2023-03-26T13:15:38.847Z,99620.13
2023-03-26T13:18:13.227Z,99619.00
2023-03-26T13:20:54.711Z,99609.16
2023-03-26T13:23:27.317Z,99608.88
2023-03-26T13:26:23.059Z,99599.53
2023-03-26T13:29:22.149Z,99596.25
2023-03-26T13:32:03.753Z,99585.97
2023-03-26T13:35:12.278Z,99594.28
2023-03-26T13:37:54.189Z,99586.13
2023-03-26T13:40:42.497Z,99585.38
2023-03-26T13:43:30.875Z,99582.28
2023-03-26T13:46:18.505Z,99568.44
2023-03-26T13:48:57.567Z,99574.56
2023-03-26T13:51:27.198Z,99572.38
2023-03-26T13:54:22.528Z,99569.00
2023-03-26T13:57:06.297Z,99569.34
2023-03-26T13:59:40.710Z,99560.28
2023-03-26T14:02:23.161Z,99563.38
2023-03-26T14:04:56.587Z,99555.16
2023-03-26T14:07:27.260Z,99557.34
2023-03-26T14:10:01.651Z,99554.16
2023-03-26T14:12:34.111Z,99556.84
2023-03-26T14:15:05.152Z,99556.69
2023-03-26T14:17:55.413Z,99550.22
2023-03-26T14:20:43.493Z,99552.19
2023-03-26T14:23:22.173Z,99540.69
2023-03-26T14:26:04.236Z,99530.44
2023-03-26T14:28:51.600Z,99538.91
2023-03-26T14:31:35.734Z,99537.31
2023-03-26T14:34:22.263Z,99532.06
2023-03-26T14:37:13.122Z,99540.97
2023-03-26T14:39:48.619Z,99523.31
2023-03-26T14:42:36.140Z,99532.06
2023-03-26T14:45:27.601Z,99533.94
2023-03-26T14:48:31.584Z,99521.88
2023-03-26T14:51:17.521Z,99518.25
2023-03-26T14:53:52.337Z,99518.25
2023-03-26T14:56:24.543Z,99508.25
2023-03-26T14:59:06.165Z,99506.31
2023-03-26T15:01:56.104Z,99503.75
2023-03-26T15:04:41.188Z,99505.25
2023-03-26T15:07:48.921Z,99499.56
2023-03-26T15:10:43.014Z,99504.81
2023-03-26T15:13:33.786Z,99492.34
2023-03-26T15:16:45.040Z,99509.28
2023-03-26T15:20:00.546Z,99496.28
2023-03-26T15:22:45.633Z,99497.31
2023-03-26T15:25:14.834Z,99493.88
2023-03-26T15:28:05.411Z,99487.28
2023-03-26T15:30:34.976Z,99485.97
2023-03-26T15:33:25.912Z,99490.63
2023-03-26T15:36:11.191Z,99483.66
2023-03-26T15:39:02.324Z,99477.81
2023-03-26T16:10:32.536Z,99478.06
2023-03-26T16:13:17.392Z,99475.69
2023-03-26T16:15:53.227Z,99471.59
2023-03-26T16:18:28.411Z,99457.78
2023-03-26T16:21:03.347Z,99462.28
2023-03-26T16:23:55.058Z,99452.44
2023-03-26T16:26:54.531Z,99457.97
2023-03-26T16:29:23.196Z,99453.66
2023-03-26T16:32:08.324Z,99451.78
2023-03-26T16:34:52.911Z,99449.72
2023-03-26T16:37:42.393Z,99456.81
2023-03-26T16:40:17.719Z,99456.16
2023-03-26T16:43:18.016Z,99460.94
2023-03-26T16:45:50.345Z,99452.75
2023-03-26T16:48:29.493Z,99444.72
2023-03-26T16:51:14.268Z,99455.59
2023-03-26T16:54:00.554Z,99447.81
2023-03-26T16:56:50.147Z,99448.31
2023-03-26T17:00:07.846Z,99441.88
2023-03-26T17:02:40.852Z,99435.63
2023-03-26T17:05:32.487Z,99437.47
2023-03-26T17:08:14.710Z,99433.16
2023-03-26T17:11:00.342Z,99439.38
2023-03-26T17:14:00.178Z,99436.09
2023-03-26T17:16:34.149Z,99443.09
2023-03-26T17:19:19.027Z,99437.34
2023-03-26T17:22:16.603Z,99441.41
2023-03-26T17:25:14.524Z,99444.34
2023-03-26T17:27:51.614Z,99435.72
2023-03-26T17:30:30.241Z,99436.72
2023-03-26T17:33:02.470Z,99440.28
2023-03-26T17:35:47.715Z,99443.53
2023-03-26T17:38:16.895Z,99443.50
2023-03-26T17:40:58.421Z,99445.41
2023-03-26T17:43:48.810Z,99447.25
2023-03-26T17:46:47.116Z,99443.34
2023-03-26T17:49:22.131Z,99439.75
2023-03-26T17:51:58.165Z,99448.75
2023-03-26T17:54:38.975Z,99453.56
2023-03-26T17:57:29.951Z,99441.03
2023-03-26T17:59:58.752Z,99436.22
2023-03-26T18:02:36.945Z,99437.72
2023-03-26T18:05:07.991Z,99435.50
2023-03-26T18:07:55.545Z,99443.88
2023-03-26T18:10:52.380Z,99451.50
2023-03-26T18:13:31.225Z,99445.00
2023-03-26T18:16:13.994Z,99447.69
2023-03-26T18:19:04.617Z,99441.72
2023-03-26T18:21:39.498Z,99444.59
2023-03-26T18:24:08.361Z,99441.28
2023-03-26T18:26:41.334Z,99430.00
2023-03-26T18:29:19.771Z,99431.00
2023-03-26T18:31:49.269Z,99424.22
2023-03-26T18:34:17.149Z,99428.81
2023-03-26T18:36:43.659Z,99430.38
2023-03-26T18:39:13.083Z,99428.28
2023-03-26T18:41:42.159Z,99424.41
2023-03-26T18:44:16.037Z,99431.06
2023-03-26T18:46:43.070Z,99428.59
2023-03-26T18:49:15.581Z,99434.66
2023-03-26T18:51:56.161Z,99430.28
2023-03-26T18:54:24.950Z,99431.31
2023-03-26T18:56:51.455Z,99427.09
2023-03-26T18:59:31.176Z,99422.16
2023-03-26T19:02:10.515Z,99426.28
2023-03-26T19:04:37.932Z,99426.81
2023-03-26T19:07:09.072Z,99426.59
2023-03-26T19:09:35.959Z,99422.72
2023-03-26T19:12:21.208Z,99424.63
2023-03-26T19:15:04.565Z,99423.75
2023-03-26T19:17:40.588Z,99418.81
2023-03-26T19:20:15.373Z,99414.69
2023-03-26T19:22:42.448Z,99410.88
2023-03-26T19:25:19.220Z,99411.50
2023-03-26T19:27:45.796Z,99402.91
2023-03-26T19:30:20.959Z,99409.63
2023-03-26T19:32:53.680Z,99400.56
2023-03-26T19:35:22.433Z,99395.41
2023-03-26T19:37:50.735Z,99389.84
2023-03-26T19:40:23.058Z,99375.38
2023-03-26T19:42:49.618Z,99377.78
2023-03-26T19:45:19.733Z,99376.34
2023-03-26T19:47:54.323Z,99376.66
2023-03-26T19:50:30.000Z,99377.63
2023-03-26T19:53:16.113Z,99382.06
2023-03-26T19:55:53.672Z,99390.41
2023-03-26T19:58:20.244Z,99381.50
2023-03-26T20:00:46.846Z,99375.38
2023-03-26T20:03:14.520Z,99380.09
2023-03-26T20:05:41.150Z,99365.19
2023-03-26T20:08:15.712Z,99346.19
2023-03-26T20:10:42.917Z,99356.41
2023-03-26T20:13:13.588Z,99355.84
2023-03-26T20:15:40.804Z,99361.41
2023-03-26T20:18:07.335Z,99365.94
2023-03-26T20:20:34.010Z,99358.72
2023-03-26T20:23:00.503Z,99363.53
2023-03-26T20:25:32.320Z,99353.19
2023-03-26T20:27:58.920Z,99347.38
2023-03-26T20:33:12.888Z,99339.84
2023-03-26T20:35:40.216Z,99340.53
2023-03-26T20:38:06.773Z,99326.75
2023-03-26T20:40:33.258Z,99323.06
2023-03-26T20:42:59.708Z,99327.16
2023-03-26T20:45:26.171Z,99324.34
2023-03-26T20:47:52.629Z,99314.22
2023-03-26T20:50:21.703Z,99311.38
2023-03-26T20:52:49.624Z,99297.75
2023-03-26T20:55:18.742Z,99297.91
2023-03-26T20:57:45.211Z,99290.09
2023-03-26T21:00:12.787Z,99289.81
2023-03-26T21:02:41.866Z,99292.66
2023-03-26T21:05:11.060Z,99290.97
2023-03-26T21:07:37.730Z,99287.31
2023-03-26T21:10:04.740Z,99287.91
2023-03-26T21:12:34.668Z,99299.88
2023-03-26T21:15:03.293Z,99284.13
2023-03-26T21:17:31.855Z,99278.75
2023-03-26T21:19:58.574Z,99264.00
2023-03-26T21:22:37.271Z,99276.19
2023-03-26T21:25:23.956Z,99260.59
2023-03-26T21:28:15.269Z,99252.28
2023-03-26T21:30:41.986Z,99246.31
2023-03-26T21:33:08.530Z,99251.53
2023-03-26T21:35:35.500Z,99242.63
2023-03-26T21:38:04.153Z,99240.53
2023-03-26T21:40:30.903Z,99244.91
2023-03-26T21:42:57.830Z,99235.41
2023-03-26T21:45:24.632Z,99234.72
2023-03-26T21:47:51.469Z,99222.81
2023-03-26T21:50:20.532Z,99222.66
2023-03-26T21:52:47.618Z,99215.03
2023-03-26T21:55:14.723Z,99217.00
2023-03-26T21:57:47.280Z,99208.06
2023-03-26T22:00:17.198Z,99206.25
2023-03-26T22:03:25.069Z,99199.72
2023-03-26T22:05:59.443Z,99202.56
2023-03-26T22:08:40.766Z,99206.09
2023-03-26T22:11:10.078Z,99206.03
2023-03-26T22:13:36.966Z,99196.28
2023-03-26T22:16:03.760Z,99188.44
2023-03-26T22:18:30.389Z,99196.38
2023-03-26T22:20:57.706Z,99189.72
2023-03-26T22:23:24.360Z,99188.59
2023-03-26T22:25:50.817Z,99182.91
2023-03-26T22:28:17.424Z,99181.50
2023-03-26T22:30:44.004Z,99175.84
2023-03-26T22:33:10.913Z,99166.63
2023-03-26T22:35:38.617Z,99157.28
2023-03-26T22:38:05.488Z,99147.06
2023-03-26T22:40:31.905Z,99152.59
2023-03-26T22:42:58.352Z,99154.84
2023-03-26T22:45:24.859Z,99162.91
2023-03-26T22:47:51.435Z,99153.44
2023-03-26T22:50:29.710Z,99129.31
2023-03-26T22:52:56.240Z,99128.78
2023-03-26T22:55:28.783Z,99136.50
2023-03-26T22:57:56.105Z,99137.50
2023-03-26T23:00:22.704Z,99131.09
2023-03-26T23:02:49.282Z,99143.28
2023-03-26T23:05:16.380Z,99126.28
2023-03-26T23:07:43.147Z,99131.81
2023-03-26T23:10:10.705Z,99128.44
2023-03-26T23:12:38.325Z,99120.44
2023-03-26T23:15:06.149Z,99118.34
2023-03-26T23:17:34.337Z,99112.19
2023-03-26T23:20:02.458Z,99115.19
2023-03-26T23:22:28.923Z,99110.94
2023-03-26T23:24:55.358Z,99112.50
2023-03-26T23:27:22.738Z,99102.03
2023-03-26T23:29:49.212Z,99098.19
2023-03-26T23:32:24.062Z,99108.63
2023-03-26T23:34:51.927Z,99105.75
2023-03-26T23:37:19.065Z,99086.38
2023-03-26T23:39:45.516Z,99094.44
2023-03-26T23:42:11.966Z,99097.25
2023-03-26T23:44:38.406Z,99091.28
2023-03-26T23:47:05.011Z,99090.31
2023-03-26T23:49:31.460Z,99085.28
2023-03-26T23:51:57.907Z,99076.59
2023-03-26T23:54:24.366Z,99068.66
2023-03-26T23:56:50.870Z,99064.56
2023-03-26T23:59:17.395Z,99062.19
